HEMA

Details ICAO HEMA (RMF)
Name Marsa Alam Intl
Region Egypt
Timezone Africa/Cairo (UTC+2.0)
Plans Departing 682
Arriving 990
Stats Elevation 250 ft / 76 m (AMSL)
Location 25.558100° 34.583100°
Runways 1
Magnetic Variation 4.568° E
Sunrise 2024-06-14 02:51:43 UTC / 2024-06-14 04:51:43 Local
Sunset 2024-06-14 16:34:56 UTC / 2024-06-14 18:34:56 Local
Advertisement - Login to hide

Runways

ID Width Length Bearing (true/mag) Surface Threshold Overrun Markings Lighting
15 148 ft / 45 m 10,661 ft / 3,249 m 150.00° / 145.43° ASPHALT 0 ft / 0 m 295 ft / 90 m PREC-APP CENTERLINE EDGE THRESHOLD
33 148 ft / 45 m 10,661 ft / 3,249 m 330.01° / 325.44° ASPHALT 0 ft / 0 m 295 ft / 90 m PREC-APP CENTERLINE EDGE THRESHOLD SALS

Map

Weather


0- 5 10 15 20 25 30 35+ Temperature / °C

Clouds and Precipitation
Forecast for 2024-04-15 18:00 UTC. Updated 2 months ago

Ground ~20,000 ft ~40,000 ft Winds

METAR

HEMA 141400Z 35017KT CAVOK 38/12 Q1004 NOSIG

TAF

TAF TAF HEMA 141100Z 1412/1518 01010G20KT CAVOK

Frequencies

Ground 121.90 MHz
Approach 121.00 MHz
Tower 121.00 MHz
Warning: Do not use this data for real-world aviation or navigation. No guarantee of current accuracy is given.